sensor_id;sensor_type;location;lat;lon;timestamp;pressure;altitude;pressure_sealevel;temperature;humidity
8717;BME280;4395;48.554;8.820;2023-02-23T00:01:31;95525.84;;;9.75;100.00
8717;BME280;4395;48.554;8.820;2023-02-23T00:03:33;95414.94;;;8.95;100.00
8717;BME280;4395;48.554;8.820;2023-02-23T00:05:36;95525.84;;;9.75;100.00
8717;BME280;4395;48.554;8.820;2023-02-23T00:07:40;95526.94;;;9.74;100.00
8717;BME280;4395;48.554;8.820;2023-02-23T00:09:44;95525.56;;;9.71;100.00
8717;BME280;4395;48.554;8.820;2023-02-23T00:11:47;95526.88;;;9.68;100.00
8717;BME280;4395;48.554;8.820;2023-02-23T00:13:50;95528.19;;;9.66;100.00
8717;BME280;4395;48.554;8.820;2023-02-23T00:15:54;95425.41;;;8.96;100.00
8717;BME280;4395;48.554;8.820;2023-02-23T00:17:57;95521.72;;;9.62;100.00
8717;BME280;4395;48.554;8.820;2023-02-23T00:20:00;95513.13;;;9.60;100.00
8717;BME280;4395;48.554;8.820;2023-02-23T00:22:08;95445.53;;;8.99;100.00
8717;BME280;4395;48.554;8.820;2023-02-23T00:24:12;95509.88;;;9.58;100.00
8717;BME280;4395;48.554;8.820;2023-02-23T00:26:16;95522.22;;;9.59;100.00
8717;BME280;4395;48.554;8.820;2023-02-23T00:28:21;95516.88;;;9.59;100.00
8717;BME280;4395;48.554;8.820;2023-02-23T00:30:24;95517.38;;;9.56;100.00
8717;BME280;4395;48.554;8.820;2023-02-23T00:32:28;95518.19;;;9.56;100.00
8717;BME280;4395;48.554;8.820;2023-02-23T00:34:31;95509.28;;;9.51;100.00
8717;BME280;4395;48.554;8.820;2023-02-23T00:36:37;95517.03;;;9.47;100.00
8717;BME280;4395;48.554;8.820;2023-02-23T00:38:40;95518.09;;;9.46;100.00
8717;BME280;4395;48.554;8.820;2023-02-23T00:40:43;95509.25;;;9.46;100.00
8717;BME280;4395;48.554;8.820;2023-02-23T00:42:47;95518.34;;;9.45;100.00
8717;BME280;4395;48.554;8.820;2023-02-23T00:44:53;95517.28;;;9.46;100.00
8717;BME280;4395;48.554;8.820;2023-02-23T00:46:57;95513.00;;;9.45;100.00
8717;BME280;4395;48.554;8.820;2023-02-23T00:49:01;95521.03;;;9.45;100.00
8717;BME280;4395;48.554;8.820;2023-02-23T00:51:05;95522.66;;;9.46;100.00
8717;BME280;4395;48.554;8.820;2023-02-23T00:53:08;95515.66;;;9.45;100.00
8717;BME280;4395;48.554;8.820;2023-02-23T00:55:13;95512.94;;;9.40;100.00
8717;BME280;4395;48.554;8.820;2023-02-23T00:57:16;95510.00;;;9.41;100.00
8717;BME280;4395;48.554;8.820;2023-02-23T00:59:19;95519.06;;;9.35;100.00
8717;BME280;4395;48.554;8.820;2023-02-23T01:01:23;95517.69;;;9.32;100.00
8717;BME280;4395;48.554;8.820;2023-02-23T01:03:27;95507.53;;;9.34;100.00
8717;BME280;4395;48.554;8.820;2023-02-23T01:05:34;95509.31;;;9.24;100.00
8717;BME280;4395;48.554;8.820;2023-02-23T01:07:37;95504.25;;;9.27;100.00
8717;BME280;4395;48.554;8.820;2023-02-23T01:09:40;95381.06;;;8.57;100.00
8717;BME280;4395;48.554;8.820;2023-02-23T01:11:44;95513.69;;;9.35;100.00
8717;BME280;4395;48.554;8.820;2023-02-23T01:13:51;95509.69;;;9.38;100.00
8717;BME280;4395;48.554;8.820;2023-02-23T01:15:54;95511.31;;;9.39;100.00
8717;BME280;4395;48.554;8.820;2023-02-23T01:17:59;95452.81;;;9.03;100.00
8717;BME280;4395;48.554;8.820;2023-02-23T01:20:02;95515.06;;;9.38;100.00
8717;BME280;4395;48.554;8.820;2023-02-23T01:22:15;95511.28;;;9.33;100.00
8717;BME280;4395;48.554;8.820;2023-02-23T01:24:19;95514.25;;;9.37;100.00
8717;BME280;4395;48.554;8.820;2023-02-23T01:26:24;95506.47;;;9.35;100.00
8717;BME280;4395;48.554;8.820;2023-02-23T01:28:28;95512.63;;;9.36;100.00
8717;BME280;4395;48.554;8.820;2023-02-23T01:30:31;95512.34;;;9.32;100.00
8717;BME280;4395;48.554;8.820;2023-02-23T01:32:34;95506.97;;;9.32;100.00
8717;BME280;4395;48.554;8.820;2023-02-23T01:34:38;95502.63;;;9.26;100.00
8717;BME280;4395;48.554;8.820;2023-02-23T01:36:42;95489.38;;;9.15;100.00
8717;BME280;4395;48.554;8.820;2023-02-23T01:38:46;95496.69;;;9.24;100.00
8717;BME280;4395;48.554;8.820;2023-02-23T01:40:49;95504.75;;;9.24;100.00
8717;BME280;4395;48.554;8.820;2023-02-23T01:42:52;95471.00;;;9.01;100.00
8717;BME280;4395;48.554;8.820;2023-02-23T01:45:18;95499.28;;;9.14;100.00
8717;BME280;4395;48.554;8.820;2023-02-23T01:47:23;95473.69;;;9.01;100.00
8717;BME280;4395;48.554;8.820;2023-02-23T01:49:29;95200.59;;;7.33;100.00
8717;BME280;4395;48.554;8.820;2023-02-23T01:51:36;95501.75;;;9.21;100.00
8717;BME280;4395;48.554;8.820;2023-02-23T01:53:43;95470.19;;;9.01;100.00
8717;BME280;4395;48.554;8.820;2023-02-23T01:55:49;95493.47;;;9.22;100.00
8717;BME280;4395;48.554;8.820;2023-02-23T01:58:06;95505.75;;;9.18;100.00
8717;BME280;4395;48.554;8.820;2023-02-23T02:00:16;95502.78;;;9.15;100.00
8717;BME280;4395;48.554;8.820;2023-02-23T02:02:25;95395.16;;;8.47;100.00
8717;BME280;4395;48.554;8.820;2023-02-23T02:04:37;95428.56;;;8.66;100.00
8717;BME280;4395;48.554;8.820;2023-02-23T02:06:46;95498.69;;;9.07;100.00
8717;BME280;4395;48.554;8.820;2023-02-23T02:08:56;95504.03;;;9.07;100.00
8717;BME280;4395;48.554;8.820;2023-02-23T02:11:01;95498.69;;;9.07;100.00
8717;BME280;4395;48.554;8.820;2023-02-23T02:13:19;95495.75;;;9.09;100.00
8717;BME280;4395;48.554;8.820;2023-02-23T02:15:31;95489.56;;;9.08;100.00
8717;BME280;4395;48.554;8.820;2023-02-23T02:17:39;95335.44;;;7.81;100.00
8717;BME280;4395;48.554;8.820;2023-02-23T02:22:57;95492.19;;;9.03;100.00
8717;BME280;4395;48.554;8.820;2023-02-23T02:25:27;95483.59;;;9.01;100.00
8717;BME280;4395;48.554;8.820;2023-02-23T02:27:49;95484.16;;;9.03;100.00
8717;BME280;4395;48.554;8.820;2023-02-23T02:35:38;95470.72;;;8.98;100.00
8717;BME280;4395;48.554;8.820;2023-02-23T02:37:53;95478.81;;;9.03;100.00
8717;BME280;4395;48.554;8.820;2023-02-23T02:40:07;95477.22;;;9.07;100.00
8717;BME280;4395;48.554;8.820;2023-02-23T02:42:20;95354.22;;;8.30;100.00
8717;BME280;4395;48.554;8.820;2023-02-23T02:44:29;95477.78;;;9.09;100.00
8717;BME280;4395;48.554;8.820;2023-02-23T02:46:36;95476.16;;;9.08;100.00
8717;BME280;4395;48.554;8.820;2023-02-23T02:48:46;95476.72;;;9.10;100.00
8717;BME280;4395;48.554;8.820;2023-02-23T02:50:54;95449.22;;;8.93;100.00
8717;BME280;4395;48.554;8.820;2023-02-23T02:53:02;95427.13;;;8.81;100.00
8717;BME280;4395;48.554;8.820;2023-02-23T02:55:11;95474.50;;;9.02;100.00
8717;BME280;4395;48.554;8.820;2023-02-23T02:57:17;95456.09;;;8.84;100.00
8717;BME280;4395;48.554;8.820;2023-02-23T02:59:22;95471.78;;;8.97;100.00
8717;BME280;4395;48.554;8.820;2023-02-23T03:01:43;95470.16;;;8.96;100.00
8717;BME280;4395;48.554;8.820;2023-02-23T03:04:18;95466.84;;;8.89;100.00
8717;BME280;4395;48.554;8.820;2023-02-23T03:06:45;95491.72;;;8.84;100.00
8717;BME280;4395;48.554;8.820;2023-02-23T03:09:15;95477.03;;;8.87;100.00
8717;BME280;4395;48.554;8.820;2023-02-23T03:11:40;95479.38;;;8.83;100.00
8717;BME280;4395;48.554;8.820;2023-02-23T03:14:15;95341.00;;;7.96;100.00
8717;BME280;4395;48.554;8.820;2023-02-23T03:16:42;95472.16;;;8.84;100.00
8717;BME280;4395;48.554;8.820;2023-02-23T03:19:12;95475.41;;;8.86;100.00
8717;BME280;4395;48.554;8.820;2023-02-23T03:21:44;95466.81;;;8.84;100.00
8717;BME280;4395;48.554;8.820;2023-02-23T03:24:16;95463.44;;;8.72;100.00
8717;BME280;4395;48.554;8.820;2023-02-23T03:26:52;95471.44;;;8.66;100.00
8717;BME280;4395;48.554;8.820;2023-02-23T03:29:19;95399.34;;;8.38;100.00
8717;BME280;4395;48.554;8.820;2023-02-23T03:31:48;95471.34;;;8.83;100.00
8717;BME280;4395;48.554;8.820;2023-02-23T03:34:14;95302.94;;;7.72;100.00
8717;BME280;4395;48.554;8.820;2023-02-23T03:36:41;95469.47;;;8.84;100.00
8717;BME280;4395;48.554;8.820;2023-02-23T03:39:09;95471.25;;;8.73;100.00
8717;BME280;4395;48.554;8.820;2023-02-23T03:41:34;95462.22;;;8.57;100.00
8717;BME280;4395;48.554;8.820;2023-02-23T03:43:59;95484.38;;;8.75;100.00
8717;BME280;4395;48.554;8.820;2023-02-23T03:46:23;95468.38;;;8.80;100.00
8717;BME280;4395;48.554;8.820;2023-02-23T03:48:46;95481.75;;;8.80;100.00
8717;BME280;4395;48.554;8.820;2023-02-23T03:51:11;95483.13;;;8.82;100.00
8717;BME280;4395;48.554;8.820;2023-02-23T03:53:34;95482.31;;;8.82;100.00
8717;BME280;4395;48.554;8.820;2023-02-23T03:56:00;95461.03;;;8.70;100.00
8717;BME280;4395;48.554;8.820;2023-02-23T03:58:27;95497.84;;;8.80;100.00
8717;BME280;4395;48.554;8.820;2023-02-23T04:00:50;95472.66;;;8.81;100.00
8717;BME280;4395;48.554;8.820;2023-02-23T04:03:15;95479.13;;;8.85;100.00
8717;BME280;4395;48.554;8.820;2023-02-23T04:05:38;95477.53;;;8.84;100.00
8717;BME280;4395;48.554;8.820;2023-02-23T04:08:01;95376.03;;;8.17;100.00
8717;BME280;4395;48.554;8.820;2023-02-23T04:10:25;95477.78;;;8.82;100.00
8717;BME280;4395;48.554;8.820;2023-02-23T04:12:51;95477.53;;;8.84;100.00
8717;BME280;4395;48.554;8.820;2023-02-23T04:15:23;95463.91;;;8.63;100.00
8717;BME280;4395;48.554;8.820;2023-02-23T04:17:28;95498.16;;;8.83;100.00
8717;BME280;4395;48.554;8.820;2023-02-23T04:19:36;95490.06;;;8.78;100.00
8717;BME280;4395;48.554;8.820;2023-02-23T04:21:38;95485.25;;;8.80;100.00
8717;BME280;4395;48.554;8.820;2023-02-23T04:23:42;95498.84;;;8.74;100.00
8717;BME280;4395;48.554;8.820;2023-02-23T04:25:44;95493.47;;;8.74;100.00
8717;BME280;4395;48.554;8.820;2023-02-23T04:27:48;95450.25;;;8.43;100.00
8717;BME280;4395;48.554;8.820;2023-02-23T04:29:51;95339.50;;;7.84;100.00
8717;BME280;4395;48.554;8.820;2023-02-23T04:31:55;95495.53;;;8.66;100.00
8717;BME280;4395;48.554;8.820;2023-02-23T04:33:58;95431.22;;;8.40;100.00
8717;BME280;4395;48.554;8.820;2023-02-23T04:36:01;95485.19;;;8.75;100.00
8717;BME280;4395;48.554;8.820;2023-02-23T04:38:04;95492.16;;;8.76;100.00
8717;BME280;4395;48.554;8.820;2023-02-23T04:40:08;95473.66;;;8.75;100.00
8717;BME280;4395;48.554;8.820;2023-02-23T04:42:11;95492.22;;;8.81;100.00
8717;BME280;4395;48.554;8.820;2023-02-23T04:44:14;95487.94;;;8.80;100.00
8717;BME280;4395;48.554;8.820;2023-02-23T04:46:17;95441.03;;;8.56;100.00
8717;BME280;4395;48.554;8.820;2023-02-23T04:48:21;95496.53;;;8.82;100.00
8717;BME280;4395;48.554;8.820;2023-02-23T04:50:25;95570.75;;;8.82;100.00
8717;BME280;4395;48.554;8.820;2023-02-23T04:52:28;95499.72;;;8.79;100.00
8717;BME280;4395;48.554;8.820;2023-02-23T04:54:31;95503.19;;;8.80;100.00
8717;BME280;4395;48.554;8.820;2023-02-23T04:56:34;95502.38;;;8.79;100.00
8717;BME280;4395;48.554;8.820;2023-02-23T04:58:37;95502.38;;;8.79;100.00
8717;BME280;4395;48.554;8.820;2023-02-23T05:00:40;95501.03;;;8.77;100.00
8717;BME280;4395;48.554;8.820;2023-02-23T05:02:43;95503.69;;;8.77;100.00
8717;BME280;4395;48.554;8.820;2023-02-23T05:04:48;95501.28;;;8.75;100.00
8717;BME280;4395;48.554;8.820;2023-02-23T05:06:50;95496.72;;;8.76;100.00
8717;BME280;4395;48.554;8.820;2023-02-23T05:08:53;95482.81;;;8.79;100.00
8717;BME280;4395;48.554;8.820;2023-02-23T05:10:56;95495.41;;;8.78;100.00
8717;BME280;4395;48.554;8.820;2023-02-23T05:12:59;95484.44;;;8.80;100.00
8717;BME280;4395;48.554;8.820;2023-02-23T05:15:03;95481.75;;;8.80;100.00
8717;BME280;4395;48.554;8.820;2023-02-23T05:17:06;95494.09;;;8.81;100.00
8717;BME280;4395;48.554;8.820;2023-02-23T05:19:09;95494.59;;;8.78;100.00
8717;BME280;4395;48.554;8.820;2023-02-23T05:21:13;95487.94;;;8.80;100.00
8717;BME280;4395;48.554;8.820;2023-02-23T05:23:17;95492.47;;;8.80;100.00
8717;BME280;4395;48.554;8.820;2023-02-23T05:25:19;95491.97;;;8.83;100.00
8717;BME280;4395;48.554;8.820;2023-02-23T05:27:22;95481.22;;;8.78;100.00
8717;BME280;4395;48.554;8.820;2023-02-23T05:29:25;95483.06;;;8.77;100.00
8717;BME280;4395;48.554;8.820;2023-02-23T05:31:28;95494.59;;;8.78;100.00
8717;BME280;4395;48.554;8.820;2023-02-23T05:33:32;95484.22;;;8.59;100.00
8717;BME280;4395;48.554;8.820;2023-02-23T05:35:39;95484.38;;;8.75;100.00
8717;BME280;4395;48.554;8.820;2023-02-23T05:37:43;95497.22;;;8.73;100.00
8717;BME280;4395;48.554;8.820;2023-02-23T05:39:46;95490.25;;;8.72;100.00
8717;BME280;4395;48.554;8.820;2023-02-23T05:41:49;95478.59;;;8.61;100.00
8717;BME280;4395;48.554;8.820;2023-02-23T05:43:53;95504.06;;;8.63;100.00
8717;BME280;4395;48.554;8.820;2023-02-23T05:45:56;95492.00;;;8.61;100.00
8717;BME280;4395;48.554;8.820;2023-02-23T05:47:59;95495.16;;;8.58;100.00
8717;BME280;4395;48.554;8.820;2023-02-23T05:50:02;95493.84;;;8.60;100.00
8717;BME280;4395;48.554;8.820;2023-02-23T05:52:05;95495.41;;;8.56;100.00
8717;BME280;4395;48.554;8.820;2023-02-23T05:54:10;95491.69;;;8.57;100.00
8717;BME280;4395;48.554;8.820;2023-02-23T05:56:15;95497.28;;;8.56;100.00
8717;BME280;4395;48.554;8.820;2023-02-23T05:58:21;95498.91;;;8.57;100.00
8717;BME280;4395;48.554;8.820;2023-02-23T06:00:24;95502.88;;;8.54;100.00
8717;BME280;4395;48.554;8.820;2023-02-23T06:02:27;95505.56;;;8.54;100.00
8717;BME280;4395;48.554;8.820;2023-02-23T06:04:30;95492.44;;;8.53;100.00
8717;BME280;4395;48.554;8.820;2023-02-23T06:06:32;95491.31;;;8.32;100.00
8717;BME280;4395;48.554;8.820;2023-02-23T06:08:35;95501.16;;;8.26;100.00
8717;BME280;4395;48.554;8.820;2023-02-23T06:10:39;95510.31;;;8.30;100.00
8717;BME280;4395;48.554;8.820;2023-02-23T06:12:42;95498.56;;;8.31;100.00
8717;BME280;4395;48.554;8.820;2023-02-23T06:14:45;95497.75;;;8.31;100.00
8717;BME280;4395;48.554;8.820;2023-02-23T06:16:48;95505.78;;;8.31;100.00
8717;BME280;4395;48.554;8.820;2023-02-23T06:18:50;95501.22;;;8.31;100.00
8717;BME280;4395;48.554;8.820;2023-02-23T06:20:54;95503.91;;;8.31;100.00
8717;BME280;4395;48.554;8.820;2023-02-23T06:22:58;95503.34;;;8.29;100.00
8717;BME280;4395;48.554;8.820;2023-02-23T06:25:01;95501.72;;;8.28;100.00
8717;BME280;4395;48.554;8.820;2023-02-23T06:27:06;95502.22;;;8.25;100.00
8717;BME280;4395;48.554;8.820;2023-02-23T06:29:09;95503.75;;;8.21;100.00
8717;BME280;4395;48.554;8.820;2023-02-23T06:31:12;95514.16;;;8.18;100.00
8717;BME280;4395;48.554;8.820;2023-02-23T06:33:15;95509.28;;;8.15;100.00
8717;BME280;4395;48.554;8.820;2023-02-23T06:35:18;95505.66;;;8.04;100.00
8717;BME280;4395;48.554;8.820;2023-02-23T06:37:21;95495.94;;;7.98;100.00
8717;BME280;4395;48.554;8.820;2023-02-23T06:39:24;95522.13;;;8.13;100.00
8717;BME280;4395;48.554;8.820;2023-02-23T06:41:26;95498.06;;;7.96;100.00
8717;BME280;4395;48.554;8.820;2023-02-23T06:43:30;95477.47;;;7.63;100.00
8717;BME280;4395;48.554;8.820;2023-02-23T06:45:33;95530.97;;;7.96;100.00
8717;BME280;4395;48.554;8.820;2023-02-23T06:47:36;95533.06;;;7.78;100.00
8717;BME280;4395;48.554;8.820;2023-02-23T06:49:39;95537.88;;;7.92;100.00
8717;BME280;4395;48.554;8.820;2023-02-23T06:51:42;95535.94;;;7.88;100.00
8717;BME280;4395;48.554;8.820;2023-02-23T06:53:44;95516.94;;;7.56;100.00
8717;BME280;4395;48.554;8.820;2023-02-23T06:55:47;95543.91;;;7.71;100.00
8717;BME280;4395;48.554;8.820;2023-02-23T06:57:50;95487.19;;;7.52;100.00
8717;BME280;4395;48.554;8.820;2023-02-23T06:59:56;95544.91;;;7.98;100.00
8717;BME280;4395;48.554;8.820;2023-02-23T07:01:58;95549.38;;;8.10;100.00
8717;BME280;4395;48.554;8.820;2023-02-23T07:04:02;95551.88;;;8.16;100.00
8717;BME280;4395;48.554;8.820;2023-02-23T07:06:05;95546.84;;;8.20;100.00
8717;BME280;4395;48.554;8.820;2023-02-23T07:08:08;95561.13;;;8.25;100.00
8717;BME280;4395;48.554;8.820;2023-02-23T07:10:11;95553.66;;;8.27;100.00
8717;BME280;4395;48.554;8.820;2023-02-23T07:12:14;95559.31;;;8.31;100.00
8717;BME280;4395;48.554;8.820;2023-02-23T07:14:17;95553.31;;;8.24;100.00
8717;BME280;4395;48.554;8.820;2023-02-23T07:16:28;95560.00;;;8.04;100.00
8717;BME280;4395;48.554;8.820;2023-02-23T07:18:31;95552.88;;;7.93;100.00
8717;BME280;4395;48.554;8.820;2023-02-23T07:20:34;95535.03;;;7.82;100.00
8717;BME280;4395;48.554;8.820;2023-02-23T07:22:36;95555.53;;;7.93;100.00
8717;BME280;4395;48.554;8.820;2023-02-23T07:24:40;95556.28;;;7.89;100.00
8717;BME280;4395;48.554;8.820;2023-02-23T07:26:43;95529.56;;;7.77;100.00
8717;BME280;4395;48.554;8.820;2023-02-23T07:28:47;95562.44;;;8.06;100.00
8717;BME280;4395;48.554;8.820;2023-02-23T07:30:50;95554.72;;;8.10;100.00
8717;BME280;4395;48.554;8.820;2023-02-23T07:32:54;95562.41;;;8.23;100.00
8717;BME280;4395;48.554;8.820;2023-02-23T07:34:57;95560.38;;;8.30;100.00
8717;BME280;4395;48.554;8.820;2023-02-23T07:37:00;95560.88;;;8.27;100.00
8717;BME280;4395;48.554;8.820;2023-02-23T07:39:03;95562.16;;;8.41;100.00
8717;BME280;4395;48.554;8.820;2023-02-23T07:41:06;95565.00;;;8.51;100.00
8717;BME280;4395;48.554;8.820;2023-02-23T07:43:09;95568.06;;;8.60;100.00
8717;BME280;4395;48.554;8.820;2023-02-23T07:45:12;95569.63;;;8.78;100.00
8717;BME280;4395;48.554;8.820;2023-02-23T07:47:14;95540.16;;;8.78;100.00
8717;BME280;4395;48.554;8.820;2023-02-23T07:49:18;95571.25;;;9.00;100.00
8717;BME280;4395;48.554;8.820;2023-02-23T07:51:21;95561.78;;;8.93;100.00
8717;BME280;4395;48.554;8.820;2023-02-23T07:53:24;95565.94;;;8.84;100.00
8717;BME280;4395;48.554;8.820;2023-02-23T07:55:28;95570.94;;;8.75;100.00
8717;BME280;4395;48.554;8.820;2023-02-23T07:57:31;95564.19;;;8.73;100.00
8717;BME280;4395;48.554;8.820;2023-02-23T07:59:34;95572.72;;;8.69;100.00
8717;BME280;4395;48.554;8.820;2023-02-23T08:01:37;95572.13;;;8.84;100.00
8717;BME280;4395;48.554;8.820;2023-02-23T08:03:40;95566.00;;;8.67;100.00
8717;BME280;4395;48.554;8.820;2023-02-23T08:05:51;95546.25;;;8.73;100.00
8717;BME280;4395;48.554;8.820;2023-02-23T08:07:54;95566.56;;;9.13;100.00
8717;BME280;4395;48.554;8.820;2023-02-23T08:09:58;95564.75;;;9.18;100.00
8717;BME280;4395;48.554;8.820;2023-02-23T08:12:01;95569.59;;;9.21;100.00
8717;BME280;4395;48.554;8.820;2023-02-23T08:14:03;95568.38;;;9.07;100.00
8717;BME280;4395;48.554;8.820;2023-02-23T08:16:07;95573.34;;;9.20;100.00
8717;BME280;4395;48.554;8.820;2023-02-23T08:18:09;95561.25;;;9.45;100.00
8717;BME280;4395;48.554;8.820;2023-02-23T08:20:13;95569.25;;;9.66;100.00
8717;BME280;4395;48.554;8.820;2023-02-23T08:22:17;95577.69;;;9.80;100.00
8717;BME280;4395;48.554;8.820;2023-02-23T08:24:19;95460.75;;;9.20;100.00
8717;BME280;4395;48.554;8.820;2023-02-23T08:26:22;95572.41;;;9.90;100.00
8717;BME280;4395;48.554;8.820;2023-02-23T08:28:26;95580.00;;;9.98;100.00
8717;BME280;4395;48.554;8.820;2023-02-23T08:30:30;95579.72;;;9.95;100.00
8717;BME280;4395;48.554;8.820;2023-02-23T08:32:33;95570.66;;;10.06;100.00
8717;BME280;4395;48.554;8.820;2023-02-23T08:34:37;95577.06;;;9.68;100.00
8717;BME280;4395;48.554;8.820;2023-02-23T08:36:40;95570.22;;;9.55;100.00
8717;BME280;4395;48.554;8.820;2023-02-23T08:38:48;95581.25;;;9.86;100.00
8717;BME280;4395;48.554;8.820;2023-02-23T08:40:50;95569.31;;;10.04;100.00
8717;BME280;4395;48.554;8.820;2023-02-23T08:42:53;95566.75;;;10.19;100.00
8717;BME280;4395;48.554;8.820;2023-02-23T08:44:56;95578.88;;;10.21;100.00
8717;BME280;4395;48.554;8.820;2023-02-23T08:46:59;95551.09;;;10.11;100.00
8717;BME280;4395;48.554;8.820;2023-02-23T08:49:05;95575.41;;;10.26;100.00
8717;BME280;4395;48.554;8.820;2023-02-23T08:51:11;95581.91;;;10.35;100.00
8717;BME280;4395;48.554;8.820;2023-02-23T08:53:15;95432.00;;;9.48;100.00
8717;BME280;4395;48.554;8.820;2023-02-23T08:55:19;95579.06;;;10.47;100.00
8717;BME280;4395;48.554;8.820;2023-02-23T08:57:22;95585.38;;;9.98;100.00
8717;BME280;4395;48.554;8.820;2023-02-23T08:59:25;95579.78;;;10.05;100.00
8717;BME280;4395;48.554;8.820;2023-02-23T09:01:28;95577.19;;;10.15;100.00
8717;BME280;4395;48.554;8.820;2023-02-23T09:03:32;95579.72;;;9.95;100.00
8717;BME280;4395;48.554;8.820;2023-02-23T09:05:39;95589.53;;;9.84;100.00
8717;BME280;4395;48.554;8.820;2023-02-23T09:07:44;95588.09;;;10.04;100.00
8717;BME280;4395;48.554;8.820;2023-02-23T09:09:52;95583.44;;;10.21;100.00
8717;BME280;4395;48.554;8.820;2023-02-23T09:11:56;95573.16;;;10.45;100.00
8717;BME280;4395;48.554;8.820;2023-02-23T09:14:00;95584.97;;;10.44;100.00
8717;BME280;4395;48.554;8.820;2023-02-23T09:16:03;95580.78;;;10.63;100.00
8717;BME280;4395;48.554;8.820;2023-02-23T09:18:10;95576.91;;;10.91;100.00
8717;BME280;4395;48.554;8.820;2023-02-23T09:20:15;95583.97;;;11.12;100.00
8717;BME280;4395;48.554;8.820;2023-02-23T09:22:18;95589.66;;;11.21;100.00
8717;BME280;4395;48.554;8.820;2023-02-23T09:24:21;95591.56;;;11.31;100.00
8717;BME280;4395;48.554;8.820;2023-02-23T09:26:24;95585.91;;;11.27;100.00
8717;BME280;4395;48.554;8.820;2023-02-23T09:28:31;95583.53;;;11.36;100.00
8717;BME280;4395;48.554;8.820;2023-02-23T09:30:34;95588.94;;;11.51;100.00
8717;BME280;4395;48.554;8.820;2023-02-23T09:32:37;95568.44;;;11.30;100.00
8717;BME280;4395;48.554;8.820;2023-02-23T09:34:40;95593.78;;;11.44;100.00
8717;BME280;4395;48.554;8.820;2023-02-23T09:36:43;95587.84;;;11.47;100.00
8717;BME280;4395;48.554;8.820;2023-02-23T09:38:48;95531.88;;;11.34;100.00
8717;BME280;4395;48.554;8.820;2023-02-23T09:40:53;95583.91;;;11.80;100.00
8717;BME280;4395;48.554;8.820;2023-02-23T09:42:59;95587.69;;;11.94;100.00
8717;BME280;4395;48.554;8.820;2023-02-23T09:45:22;95579.09;;;12.02;100.00
8717;BME280;4395;48.554;8.820;2023-02-23T09:47:32;95579.34;;;12.06;100.00
8717;BME280;4395;48.554;8.820;2023-02-23T09:49:44;95585.28;;;12.18;100.00
8717;BME280;4395;48.554;8.820;2023-02-23T09:51:51;95577.75;;;12.30;100.00
8717;BME280;4395;48.554;8.820;2023-02-23T09:53:59;95590.66;;;12.38;100.00
8717;BME280;4395;48.554;8.820;2023-02-23T09:56:10;95593.34;;;12.43;100.00
8717;BME280;4395;48.554;8.820;2023-02-23T09:58:20;95590.66;;;12.53;100.00
8717;BME280;4395;48.554;8.820;2023-02-23T10:00:25;95553.75;;;12.29;100.00
8717;BME280;4395;48.554;8.820;2023-02-23T10:02:32;95593.88;;;12.55;100.00
8717;BME280;4395;48.554;8.820;2023-02-23T10:04:42;95589.03;;;12.47;100.00
8717;BME280;4395;48.554;8.820;2023-02-23T10:06:53;95590.63;;;12.59;100.00
8717;BME280;4395;48.554;8.820;2023-02-23T10:09:06;95594.66;;;12.71;100.00
8717;BME280;4395;48.554;8.820;2023-02-23T10:11:23;95589.81;;;12.68;100.00
8717;BME280;4395;48.554;8.820;2023-02-23T10:13:37;95591.94;;;12.86;100.00
8717;BME280;4395;48.554;8.820;2023-02-23T10:15:51;95593.00;;;13.01;100.00
8717;BME280;4395;48.554;8.820;2023-02-23T10:18:07;95594.59;;;13.07;100.00
8717;BME280;4395;48.554;8.820;2023-02-23T10:20:20;95543.69;;;12.75;100.00
8717;BME280;4395;48.554;8.820;2023-02-23T10:22:26;95591.88;;;13.17;100.00
8717;BME280;4395;48.554;8.820;2023-02-23T10:24:34;95585.09;;;13.30;100.00
8717;BME280;4395;48.554;8.820;2023-02-23T10:26:40;95584.53;;;13.33;100.00
8717;BME280;4395;48.554;8.820;2023-02-23T10:28:45;95587.47;;;13.41;100.00
8717;BME280;4395;48.554;8.820;2023-02-23T10:30:50;95587.19;;;13.43;100.00
8717;BME280;4395;48.554;8.820;2023-02-23T10:32:59;95589.69;;;13.29;100.00
8717;BME280;4395;48.554;8.820;2023-02-23T10:35:09;95580.19;;;13.37;100.00
8717;BME280;4395;48.554;8.820;2023-02-23T10:37:15;95589.28;;;13.56;100.00
8717;BME280;4395;48.554;8.820;2023-02-23T10:39:18;95580.13;;;12.52;100.00
8717;BME280;4395;48.554;8.820;2023-02-23T10:41:21;95580.94;;;12.47;100.00
8717;BME280;4395;48.554;8.820;2023-02-23T10:43:24;95587.03;;;13.09;100.00
8717;BME280;4395;48.554;8.820;2023-02-23T10:45:28;95586.88;;;13.49;100.00
8717;BME280;4395;48.554;8.820;2023-02-23T10:47:35;95578.03;;;13.83;100.00
8717;BME280;4395;48.554;8.820;2023-02-23T10:49:41;95583.31;;;14.03;100.00
8717;BME280;4395;48.554;8.820;2023-02-23T10:51:45;95568.63;;;14.14;100.00
8717;BME280;4395;48.554;8.820;2023-02-23T10:53:48;95572.56;;;14.27;100.00
8717;BME280;4395;48.554;8.820;2023-02-23T10:56:02;95568.69;;;14.43;100.00
8717;BME280;4395;48.554;8.820;2023-02-23T10:58:09;95558.16;;;14.42;99.83
8717;BME280;4395;48.554;8.820;2023-02-23T11:00:27;95575.09;;;14.53;98.24
8717;BME280;4395;48.554;8.820;2023-02-23T11:02:32;95554.41;;;14.33;96.35
8717;BME280;4395;48.554;8.820;2023-02-23T11:04:49;95568.63;;;14.48;98.02
8717;BME280;4395;48.554;8.820;2023-02-23T11:07:06;95562.28;;;14.29;97.88
8717;BME280;4395;48.554;8.820;2023-02-23T11:09:22;95564.88;;;14.44;97.56
8717;BME280;4395;48.554;8.820;2023-02-23T11:11:55;95573.72;;;14.55;95.39
8717;BME280;4395;48.554;8.820;2023-02-23T11:13:58;95562.56;;;14.62;96.96
8717;BME280;4395;48.554;8.820;2023-02-23T11:16:10;95565.31;;;14.57;93.72
8717;BME280;4395;48.554;8.820;2023-02-23T11:18:19;95566.31;;;14.32;93.57
8717;BME280;4395;48.554;8.820;2023-02-23T11:20:29;95579.03;;;13.53;98.33
8717;BME280;4395;48.554;8.820;2023-02-23T11:22:35;95574.75;;;13.47;100.00
8717;BME280;4395;48.554;8.820;2023-02-23T11:24:39;95567.66;;;13.61;100.00
8717;BME280;4395;48.554;8.820;2023-02-23T11:26:43;95568.38;;;13.77;100.00
8717;BME280;4395;48.554;8.820;2023-02-23T11:28:47;95580.44;;;13.90;100.00
8717;BME280;4395;48.554;8.820;2023-02-23T11:30:52;95555.06;;;13.86;100.00
8717;BME280;4395;48.554;8.820;2023-02-23T11:32:58;95519.56;;;13.63;100.00
8717;BME280;4395;48.554;8.820;2023-02-23T11:35:13;95556.19;;;13.79;100.00
8717;BME280;4395;48.554;8.820;2023-02-23T11:37:30;95549.16;;;13.83;100.00
8717;BME280;4395;48.554;8.820;2023-02-23T11:39:33;95490.31;;;13.41;100.00
8717;BME280;4395;48.554;8.820;2023-02-23T11:41:36;95544.34;;;13.75;100.00